sensor_id;sensor_type;location;lat;lon;timestamp;P1;durP1;ratioP1;P2;durP2;ratioP2
42832;SDS011;64089;51.478;5.692;2023-03-01T00:01:15;9.55;;;5.28;;
42832;SDS011;64089;51.478;5.692;2023-03-01T00:03:47;12.77;;;5.40;;
42832;SDS011;64089;51.478;5.692;2023-03-01T00:06:13;10.85;;;4.90;;
42832;SDS011;64089;51.478;5.692;2023-03-01T00:08:39;10.05;;;4.97;;
42832;SDS011;64089;51.478;5.692;2023-03-01T00:13:34;14.77;;;4.72;;
42832;SDS011;64089;51.478;5.692;2023-03-01T00:16:01;8.98;;;5.07;;
42832;SDS011;64089;51.478;5.692;2023-03-01T00:18:28;9.82;;;4.45;;
42832;SDS011;64089;51.478;5.692;2023-03-01T00:20:54;8.82;;;4.53;;
42832;SDS011;64089;51.478;5.692;2023-03-01T00:23:21;13.82;;;5.68;;
42832;SDS011;64089;51.478;5.692;2023-03-01T00:25:48;10.15;;;4.60;;
42832;SDS011;64089;51.478;5.692;2023-03-01T00:28:13;11.20;;;5.45;;
42832;SDS011;64089;51.478;5.692;2023-03-01T00:30:40;9.55;;;4.97;;
42832;SDS011;64089;51.478;5.692;2023-03-01T00:33:05;11.35;;;4.65;;
42832;SDS011;64089;51.478;5.692;2023-03-01T00:35:34;9.85;;;4.55;;
42832;SDS011;64089;51.478;5.692;2023-03-01T00:38:00;8.10;;;4.93;;
42832;SDS011;64089;51.478;5.692;2023-03-01T00:40:26;9.30;;;4.65;;
42832;SDS011;64089;51.478;5.692;2023-03-01T00:42:53;10.70;;;5.97;;
42832;SDS011;64089;51.478;5.692;2023-03-01T00:45:19;9.48;;;5.00;;
42832;SDS011;64089;51.478;5.692;2023-03-01T00:47:48;9.15;;;4.43;;
42832;SDS011;64089;51.478;5.692;2023-03-01T00:50:14;8.05;;;4.63;;
42832;SDS011;64089;51.478;5.692;2023-03-01T00:52:40;12.60;;;5.72;;
42832;SDS011;64089;51.478;5.692;2023-03-01T00:55:06;9.45;;;5.00;;
42832;SDS011;64089;51.478;5.692;2023-03-01T00:57:32;8.73;;;4.35;;
42832;SDS011;64089;51.478;5.692;2023-03-01T00:59:58;8.05;;;4.80;;
42832;SDS011;64089;51.478;5.692;2023-03-01T01:02:24;12.05;;;4.75;;
42832;SDS011;64089;51.478;5.692;2023-03-01T01:04:50;9.05;;;5.03;;
42832;SDS011;64089;51.478;5.692;2023-03-01T01:07:15;9.65;;;5.15;;
42832;SDS011;64089;51.478;5.692;2023-03-01T01:09:41;9.43;;;5.20;;
42832;SDS011;64089;51.478;5.692;2023-03-01T01:12:07;10.38;;;4.90;;
42832;SDS011;64089;51.478;5.692;2023-03-01T01:14:33;7.82;;;4.40;;
42832;SDS011;64089;51.478;5.692;2023-03-01T01:16:59;8.15;;;4.85;;
42832;SDS011;64089;51.478;5.692;2023-03-01T01:19:25;12.15;;;5.50;;
42832;SDS011;64089;51.478;5.692;2023-03-01T01:21:51;8.32;;;4.22;;
42832;SDS011;64089;51.478;5.692;2023-03-01T01:24:17;8.23;;;4.32;;
42832;SDS011;64089;51.478;5.692;2023-03-01T01:26:46;9.32;;;5.18;;
42832;SDS011;64089;51.478;5.692;2023-03-01T01:29:12;9.85;;;5.05;;
42832;SDS011;64089;51.478;5.692;2023-03-01T01:31:38;13.20;;;5.35;;
42832;SDS011;64089;51.478;5.692;2023-03-01T01:34:05;10.20;;;5.10;;
42832;SDS011;64089;51.478;5.692;2023-03-01T01:36:33;11.13;;;5.22;;
42832;SDS011;64089;51.478;5.692;2023-03-01T01:38:59;8.55;;;4.22;;
42832;SDS011;64089;51.478;5.692;2023-03-01T01:41:26;11.50;;;5.00;;
42832;SDS011;64089;51.478;5.692;2023-03-01T01:47:07;8.85;;;4.57;;
42832;SDS011;64089;51.478;5.692;2023-03-01T01:49:42;12.07;;;4.50;;
42832;SDS011;64089;51.478;5.692;2023-03-01T01:52:16;8.20;;;4.63;;
42832;SDS011;64089;51.478;5.692;2023-03-01T01:57:36;10.18;;;5.10;;
42832;SDS011;64089;51.478;5.692;2023-03-01T02:00:09;10.77;;;4.78;;
42832;SDS011;64089;51.478;5.692;2023-03-01T02:02:39;8.98;;;4.97;;
42832;SDS011;64089;51.478;5.692;2023-03-01T02:05:21;8.52;;;4.57;;
42832;SDS011;64089;51.478;5.692;2023-03-01T02:08:01;8.60;;;5.07;;
42832;SDS011;64089;51.478;5.692;2023-03-01T02:10:27;9.27;;;4.88;;
42832;SDS011;64089;51.478;5.692;2023-03-01T02:12:54;8.50;;;4.88;;
42832;SDS011;64089;51.478;5.692;2023-03-01T02:15:21;16.33;;;4.75;;
42832;SDS011;64089;51.478;5.692;2023-03-01T02:17:47;9.27;;;4.85;;
42832;SDS011;64089;51.478;5.692;2023-03-01T02:20:20;17.05;;;4.85;;
42832;SDS011;64089;51.478;5.692;2023-03-01T02:23:00;8.32;;;4.53;;
42832;SDS011;64089;51.478;5.692;2023-03-01T02:30:38;8.88;;;4.25;;
42832;SDS011;64089;51.478;5.692;2023-03-01T02:33:25;7.80;;;4.30;;
42832;SDS011;64089;51.478;5.692;2023-03-01T02:35:52;8.68;;;4.75;;
42832;SDS011;64089;51.478;5.692;2023-03-01T02:38:19;10.50;;;4.90;;
42832;SDS011;64089;51.478;5.692;2023-03-01T02:40:47;13.32;;;5.68;;
42832;SDS011;64089;51.478;5.692;2023-03-01T02:43:14;9.23;;;5.07;;
42832;SDS011;64089;51.478;5.692;2023-03-01T02:45:47;12.85;;;5.40;;
42832;SDS011;64089;51.478;5.692;2023-03-01T02:53:45;10.98;;;5.13;;
42832;SDS011;64089;51.478;5.692;2023-03-01T02:56:24;8.32;;;4.50;;
42832;SDS011;64089;51.478;5.692;2023-03-01T02:58:50;8.98;;;4.70;;
42832;SDS011;64089;51.478;5.692;2023-03-01T03:01:18;8.85;;;4.88;;
42832;SDS011;64089;51.478;5.692;2023-03-01T03:03:44;11.80;;;5.07;;
42832;SDS011;64089;51.478;5.692;2023-03-01T03:06:09;8.77;;;4.63;;
42832;SDS011;64089;51.478;5.692;2023-03-01T03:08:35;12.93;;;4.90;;
42832;SDS011;64089;51.478;5.692;2023-03-01T03:11:01;9.45;;;4.82;;
42832;SDS011;64089;51.478;5.692;2023-03-01T03:13:27;10.10;;;5.07;;
42832;SDS011;64089;51.478;5.692;2023-03-01T03:15:54;10.52;;;5.20;;
42832;SDS011;64089;51.478;5.692;2023-03-01T03:18:21;12.02;;;5.13;;
42832;SDS011;64089;51.478;5.692;2023-03-01T03:20:47;9.27;;;5.28;;
42832;SDS011;64089;51.478;5.692;2023-03-01T03:23:17;10.60;;;5.82;;
42832;SDS011;64089;51.478;5.692;2023-03-01T03:25:47;10.43;;;5.20;;
42832;SDS011;64089;51.478;5.692;2023-03-01T03:28:14;14.75;;;5.13;;
42832;SDS011;64089;51.478;5.692;2023-03-01T03:30:40;9.68;;;4.80;;
42832;SDS011;64089;51.478;5.692;2023-03-01T03:33:12;10.05;;;5.20;;
42832;SDS011;64089;51.478;5.692;2023-03-01T03:35:44;12.55;;;5.10;;
42832;SDS011;64089;51.478;5.692;2023-03-01T03:38:13;11.55;;;5.18;;
42832;SDS011;64089;51.478;5.692;2023-03-01T03:40:50;10.82;;;5.80;;
42832;SDS011;64089;51.478;5.692;2023-03-01T03:43:21;15.20;;;6.30;;
42832;SDS011;64089;51.478;5.692;2023-03-01T03:45:48;11.20;;;5.13;;
42832;SDS011;64089;51.478;5.692;2023-03-01T03:48:15;8.50;;;5.18;;
42832;SDS011;64089;51.478;5.692;2023-03-01T03:50:41;13.80;;;5.55;;
42832;SDS011;64089;51.478;5.692;2023-03-01T03:53:08;11.13;;;4.93;;
42832;SDS011;64089;51.478;5.692;2023-03-01T03:55:36;9.43;;;4.75;;
42832;SDS011;64089;51.478;5.692;2023-03-01T03:58:04;13.02;;;5.43;;
42832;SDS011;64089;51.478;5.692;2023-03-01T04:00:35;10.45;;;5.05;;
42832;SDS011;64089;51.478;5.692;2023-03-01T04:03:03;10.48;;;5.72;;
42832;SDS011;64089;51.478;5.692;2023-03-01T04:05:29;10.75;;;5.45;;
42832;SDS011;64089;51.478;5.692;2023-03-01T04:07:55;20.05;;;5.03;;
42832;SDS011;64089;51.478;5.692;2023-03-01T04:10:28;11.60;;;5.22;;
42832;SDS011;64089;51.478;5.692;2023-03-01T04:12:55;13.00;;;5.40;;
42832;SDS011;64089;51.478;5.692;2023-03-01T04:15:22;14.07;;;5.43;;
42832;SDS011;64089;51.478;5.692;2023-03-01T04:17:49;13.52;;;6.35;;
42832;SDS011;64089;51.478;5.692;2023-03-01T04:20:17;12.20;;;5.38;;
42832;SDS011;64089;51.478;5.692;2023-03-01T04:23:00;10.07;;;5.32;;
42832;SDS011;64089;51.478;5.692;2023-03-01T04:25:39;9.55;;;5.80;;
42832;SDS011;64089;51.478;5.692;2023-03-01T04:28:07;9.93;;;5.40;;
42832;SDS011;64089;51.478;5.692;2023-03-01T04:30:34;12.75;;;6.03;;
42832;SDS011;64089;51.478;5.692;2023-03-01T04:33:07;11.30;;;6.15;;
42832;SDS011;64089;51.478;5.692;2023-03-01T04:35:34;12.43;;;5.85;;
42832;SDS011;64089;51.478;5.692;2023-03-01T04:38:01;10.57;;;5.20;;
42832;SDS011;64089;51.478;5.692;2023-03-01T04:40:27;11.32;;;5.38;;
42832;SDS011;64089;51.478;5.692;2023-03-01T04:42:53;12.80;;;4.90;;
42832;SDS011;64089;51.478;5.692;2023-03-01T04:45:19;10.85;;;5.35;;
42832;SDS011;64089;51.478;5.692;2023-03-01T04:47:45;11.55;;;5.07;;
42832;SDS011;64089;51.478;5.692;2023-03-01T04:50:13;11.18;;;5.30;;
42832;SDS011;64089;51.478;5.692;2023-03-01T04:52:41;10.68;;;5.55;;
42832;SDS011;64089;51.478;5.692;2023-03-01T04:55:06;11.13;;;5.50;;
42832;SDS011;64089;51.478;5.692;2023-03-01T04:57:33;12.43;;;5.97;;
42832;SDS011;64089;51.478;5.692;2023-03-01T04:59:58;11.82;;;6.00;;
42832;SDS011;64089;51.478;5.692;2023-03-01T05:02:24;10.35;;;5.65;;
42832;SDS011;64089;51.478;5.692;2023-03-01T05:04:50;14.60;;;6.13;;
42832;SDS011;64089;51.478;5.692;2023-03-01T05:07:15;9.75;;;5.10;;
42832;SDS011;64089;51.478;5.692;2023-03-01T05:09:45;10.90;;;6.15;;
42832;SDS011;64089;51.478;5.692;2023-03-01T05:12:11;13.60;;;5.75;;
42832;SDS011;64089;51.478;5.692;2023-03-01T05:14:37;15.20;;;5.85;;
42832;SDS011;64089;51.478;5.692;2023-03-01T05:17:04;15.15;;;5.68;;
42832;SDS011;64089;51.478;5.692;2023-03-01T05:19:30;17.25;;;5.95;;
42832;SDS011;64089;51.478;5.692;2023-03-01T05:21:57;16.23;;;5.68;;
42832;SDS011;64089;51.478;5.692;2023-03-01T05:24:29;13.30;;;5.20;;
42832;SDS011;64089;51.478;5.692;2023-03-01T05:26:56;12.73;;;6.18;;
42832;SDS011;64089;51.478;5.692;2023-03-01T05:29:23;15.77;;;5.53;;
42832;SDS011;64089;51.478;5.692;2023-03-01T05:31:53;14.32;;;6.47;;
42832;SDS011;64089;51.478;5.692;2023-03-01T05:34:30;17.40;;;6.32;;
42832;SDS011;64089;51.478;5.692;2023-03-01T05:36:57;18.52;;;6.15;;
42832;SDS011;64089;51.478;5.692;2023-03-01T05:39:24;12.00;;;5.75;;
42832;SDS011;64089;51.478;5.692;2023-03-01T05:41:51;18.50;;;6.72;;
42832;SDS011;64089;51.478;5.692;2023-03-01T05:44:18;13.77;;;5.90;;
42832;SDS011;64089;51.478;5.692;2023-03-01T05:46:44;10.75;;;5.53;;
42832;SDS011;64089;51.478;5.692;2023-03-01T05:49:10;15.85;;;6.40;;
42832;SDS011;64089;51.478;5.692;2023-03-01T05:51:38;12.85;;;5.35;;
42832;SDS011;64089;51.478;5.692;2023-03-01T05:54:04;11.52;;;6.07;;
42832;SDS011;64089;51.478;5.692;2023-03-01T05:56:31;13.48;;;6.13;;
42832;SDS011;64089;51.478;5.692;2023-03-01T05:58:59;12.20;;;6.07;;
42832;SDS011;64089;51.478;5.692;2023-03-01T06:01:25;12.43;;;6.30;;
42832;SDS011;64089;51.478;5.692;2023-03-01T06:03:50;14.27;;;6.10;;
42832;SDS011;64089;51.478;5.692;2023-03-01T06:06:16;17.63;;;6.45;;
42832;SDS011;64089;51.478;5.692;2023-03-01T06:08:41;13.07;;;6.50;;
42832;SDS011;64089;51.478;5.692;2023-03-01T06:11:07;13.23;;;6.22;;
42832;SDS011;64089;51.478;5.692;2023-03-01T06:13:33;13.23;;;5.85;;
42832;SDS011;64089;51.478;5.692;2023-03-01T06:15:58;17.05;;;6.88;;
42832;SDS011;64089;51.478;5.692;2023-03-01T06:18:24;16.20;;;6.53;;
42832;SDS011;64089;51.478;5.692;2023-03-01T06:20:53;12.05;;;5.53;;
42832;SDS011;64089;51.478;5.692;2023-03-01T06:23:20;13.27;;;5.78;;
42832;SDS011;64089;51.478;5.692;2023-03-01T06:25:46;12.73;;;6.30;;
42832;SDS011;64089;51.478;5.692;2023-03-01T06:28:12;16.63;;;5.80;;
42832;SDS011;64089;51.478;5.692;2023-03-01T06:30:37;14.02;;;6.32;;
42832;SDS011;64089;51.478;5.692;2023-03-01T06:33:03;12.55;;;6.05;;
42832;SDS011;64089;51.478;5.692;2023-03-01T06:35:29;11.48;;;5.88;;
42832;SDS011;64089;51.478;5.692;2023-03-01T06:37:55;16.08;;;7.70;;
42832;SDS011;64089;51.478;5.692;2023-03-01T06:40:20;11.80;;;6.40;;
42832;SDS011;64089;51.478;5.692;2023-03-01T06:42:50;12.30;;;6.43;;
42832;SDS011;64089;51.478;5.692;2023-03-01T06:45:16;14.35;;;7.25;;
42832;SDS011;64089;51.478;5.692;2023-03-01T06:47:43;14.43;;;6.57;;
42832;SDS011;64089;51.478;5.692;2023-03-01T06:50:09;16.38;;;6.43;;
42832;SDS011;64089;51.478;5.692;2023-03-01T06:52:37;12.68;;;6.45;;
42832;SDS011;64089;51.478;5.692;2023-03-01T06:55:03;14.15;;;6.95;;
42832;SDS011;64089;51.478;5.692;2023-03-01T06:57:29;11.90;;;6.53;;
42832;SDS011;64089;51.478;5.692;2023-03-01T06:59:55;9.80;;;6.07;;
42832;SDS011;64089;51.478;5.692;2023-03-01T07:02:20;16.58;;;8.27;;
42832;SDS011;64089;51.478;5.692;2023-03-01T07:04:48;12.20;;;6.95;;
42832;SDS011;64089;51.478;5.692;2023-03-01T07:07:15;11.82;;;6.00;;
42832;SDS011;64089;51.478;5.692;2023-03-01T07:09:40;14.27;;;6.13;;
42832;SDS011;64089;51.478;5.692;2023-03-01T07:12:06;14.18;;;6.05;;
42832;SDS011;64089;51.478;5.692;2023-03-01T07:14:32;11.63;;;5.78;;
42832;SDS011;64089;51.478;5.692;2023-03-01T07:16:58;13.45;;;6.13;;
42832;SDS011;64089;51.478;5.692;2023-03-01T07:19:24;9.60;;;5.68;;
42832;SDS011;64089;51.478;5.692;2023-03-01T07:21:49;11.55;;;6.47;;
42832;SDS011;64089;51.478;5.692;2023-03-01T07:24:15;17.17;;;6.97;;
42832;SDS011;64089;51.478;5.692;2023-03-01T07:26:40;11.25;;;6.10;;
42832;SDS011;64089;51.478;5.692;2023-03-01T07:29:06;14.20;;;6.55;;
42832;SDS011;64089;51.478;5.692;2023-03-01T07:31:34;12.57;;;6.38;;
42832;SDS011;64089;51.478;5.692;2023-03-01T07:34:00;12.80;;;6.07;;
42832;SDS011;64089;51.478;5.692;2023-03-01T07:36:25;17.92;;;6.40;;
42832;SDS011;64089;51.478;5.692;2023-03-01T07:38:51;11.20;;;5.43;;
42832;SDS011;64089;51.478;5.692;2023-03-01T07:41:16;16.65;;;5.72;;
42832;SDS011;64089;51.478;5.692;2023-03-01T07:43:42;13.93;;;6.10;;
42832;SDS011;64089;51.478;5.692;2023-03-01T07:46:08;10.55;;;5.47;;
42832;SDS011;64089;51.478;5.692;2023-03-01T07:48:33;12.10;;;5.57;;
42832;SDS011;64089;51.478;5.692;2023-03-01T07:51:03;10.90;;;5.63;;
42832;SDS011;64089;51.478;5.692;2023-03-01T07:53:31;16.02;;;6.75;;
42832;SDS011;64089;51.478;5.692;2023-03-01T07:58:28;12.18;;;5.90;;
42832;SDS011;64089;51.478;5.692;2023-03-01T08:00:54;11.13;;;5.88;;
42832;SDS011;64089;51.478;5.692;2023-03-01T08:03:19;16.42;;;6.53;;
42832;SDS011;64089;51.478;5.692;2023-03-01T08:05:48;11.35;;;5.97;;
42832;SDS011;64089;51.478;5.692;2023-03-01T08:08:13;14.00;;;5.95;;
42832;SDS011;64089;51.478;5.692;2023-03-01T08:10:39;14.10;;;6.93;;
42832;SDS011;64089;51.478;5.692;2023-03-01T08:13:04;13.93;;;6.47;;
42832;SDS011;64089;51.478;5.692;2023-03-01T08:15:30;13.75;;;6.47;;
42832;SDS011;64089;51.478;5.692;2023-03-01T08:17:56;17.00;;;7.10;;
42832;SDS011;64089;51.478;5.692;2023-03-01T08:20:21;12.73;;;5.68;;
42832;SDS011;64089;51.478;5.692;2023-03-01T08:22:47;37.67;;;13.75;;
42832;SDS011;64089;51.478;5.692;2023-03-01T08:25:12;32.78;;;15.80;;
42832;SDS011;64089;51.478;5.692;2023-03-01T08:27:38;27.02;;;11.93;;
42832;SDS011;64089;51.478;5.692;2023-03-01T08:30:04;56.67;;;23.00;;
42832;SDS011;64089;51.478;5.692;2023-03-01T08:32:32;18.13;;;8.23;;
42832;SDS011;64089;51.478;5.692;2023-03-01T08:35:01;15.80;;;6.33;;
42832;SDS011;64089;51.478;5.692;2023-03-01T08:37:26;24.92;;;5.50;;
42832;SDS011;64089;51.478;5.692;2023-03-01T08:39:55;11.77;;;4.97;;
42832;SDS011;64089;51.478;5.692;2023-03-01T08:42:21;14.32;;;6.10;;
42832;SDS011;64089;51.478;5.692;2023-03-01T08:44:47;11.70;;;5.75;;
42832;SDS011;64089;51.478;5.692;2023-03-01T08:47:12;9.95;;;5.70;;
42832;SDS011;64089;51.478;5.692;2023-03-01T08:49:39;11.60;;;5.78;;
42832;SDS011;64089;51.478;5.692;2023-03-01T08:52:05;10.43;;;5.53;;
42832;SDS011;64089;51.478;5.692;2023-03-01T08:54:31;10.60;;;5.57;;
42832;SDS011;64089;51.478;5.692;2023-03-01T08:56:56;59.83;;;21.58;;
42832;SDS011;64089;51.478;5.692;2023-03-01T08:59:24;49.10;;;18.35;;
42832;SDS011;64089;51.478;5.692;2023-03-01T09:01:50;39.67;;;16.27;;
42832;SDS011;64089;51.478;5.692;2023-03-01T09:04:16;16.58;;;6.30;;
42832;SDS011;64089;51.478;5.692;2023-03-01T09:06:41;12.80;;;5.65;;
42832;SDS011;64089;51.478;5.692;2023-03-01T09:09:10;14.27;;;4.95;;
42832;SDS011;64089;51.478;5.692;2023-03-01T09:11:40;12.38;;;5.78;;
42832;SDS011;64089;51.478;5.692;2023-03-01T09:14:05;12.02;;;5.68;;
42832;SDS011;64089;51.478;5.692;2023-03-01T09:16:31;10.43;;;5.63;;
42832;SDS011;64089;51.478;5.692;2023-03-01T09:19:00;9.90;;;5.53;;
42832;SDS011;64089;51.478;5.692;2023-03-01T09:21:26;12.60;;;6.25;;
42832;SDS011;64089;51.478;5.692;2023-03-01T09:23:52;12.48;;;5.38;;
42832;SDS011;64089;51.478;5.692;2023-03-01T09:26:18;8.75;;;5.35;;
42832;SDS011;64089;51.478;5.692;2023-03-01T09:28:49;9.95;;;5.70;;
42832;SDS011;64089;51.478;5.692;2023-03-01T09:31:16;11.40;;;5.88;;
42832;SDS011;64089;51.478;5.692;2023-03-01T09:33:45;7.57;;;4.65;;
42832;SDS011;64089;51.478;5.692;2023-03-01T09:36:13;13.38;;;5.88;;
42832;SDS011;64089;51.478;5.692;2023-03-01T09:38:41;13.57;;;6.00;;
42832;SDS011;64089;51.478;5.692;2023-03-01T09:41:21;18.55;;;5.75;;
42832;SDS011;64089;51.478;5.692;2023-03-01T09:46:51;16.33;;;6.85;;
42832;SDS011;64089;51.478;5.692;2023-03-01T09:49:25;16.45;;;5.82;;
42832;SDS011;64089;51.478;5.692;2023-03-01T09:52:02;20.65;;;6.93;;
42832;SDS011;64089;51.478;5.692;2023-03-01T09:54:37;14.70;;;6.15;;
42832;SDS011;64089;51.478;5.692;2023-03-01T09:57:07;17.30;;;5.80;;
42832;SDS011;64089;51.478;5.692;2023-03-01T09:59:47;13.93;;;6.43;;
42832;SDS011;64089;51.478;5.692;2023-03-01T10:05:14;14.27;;;6.60;;
42832;SDS011;64089;51.478;5.692;2023-03-01T10:10:21;15.93;;;6.63;;
42832;SDS011;64089;51.478;5.692;2023-03-01T10:12:52;13.35;;;5.60;;
42832;SDS011;64089;51.478;5.692;2023-03-01T10:18:30;14.45;;;5.78;;
42832;SDS011;64089;51.478;5.692;2023-03-01T10:23:25;10.25;;;4.68;;
42832;SDS011;64089;51.478;5.692;2023-03-01T10:28:31;20.77;;;5.60;;
42832;SDS011;64089;51.478;5.692;2023-03-01T10:31:19;11.30;;;5.90;;
42832;SDS011;64089;51.478;5.692;2023-03-01T10:34:01;12.00;;;6.07;;
42832;SDS011;64089;51.478;5.692;2023-03-01T10:36:28;12.73;;;5.45;;
42832;SDS011;64089;51.478;5.692;2023-03-01T10:38:58;10.50;;;5.93;;
42832;SDS011;64089;51.478;5.692;2023-03-01T10:41:25;13.82;;;6.10;;
42832;SDS011;64089;51.478;5.692;2023-03-01T10:43:53;13.00;;;6.35;;
42832;SDS011;64089;51.478;5.692;2023-03-01T10:46:30;12.70;;;6.55;;
42832;SDS011;64089;51.478;5.692;2023-03-01T10:51:49;20.52;;;9.82;;
42832;SDS011;64089;51.478;5.692;2023-03-01T10:54:20;20.27;;;9.38;;
42832;SDS011;64089;51.478;5.692;2023-03-01T10:56:54;16.40;;;6.43;;
42832;SDS011;64089;51.478;5.692;2023-03-01T10:59:26;10.77;;;5.37;;
42832;SDS011;64089;51.478;5.692;2023-03-01T11:02:04;10.90;;;5.55;;
42832;SDS011;64089;51.478;5.692;2023-03-01T11:05:01;12.05;;;5.50;;
42832;SDS011;64089;51.478;5.692;2023-03-01T11:08:13;9.88;;;5.63;;
42832;SDS011;64089;51.478;5.692;2023-03-01T11:10:33;9.13;;;5.43;;
42832;SDS011;64089;51.478;5.692;2023-03-01T11:13:08;12.65;;;5.68;;
42832;SDS011;64089;51.478;5.692;2023-03-01T11:15:58;11.52;;;4.53;;
42832;SDS011;64089;51.478;5.692;2023-03-01T11:18:29;10.20;;;4.82;;
42832;SDS011;64089;51.478;5.692;2023-03-01T11:20:55;9.75;;;5.15;;
42832;SDS011;64089;51.478;5.692;2023-03-01T11:23:23;10.77;;;5.45;;
42832;SDS011;64089;51.478;5.692;2023-03-01T11:25:52;10.07;;;4.82;;
42832;SDS011;64089;51.478;5.692;2023-03-01T11:28:21;9.02;;;4.43;;
42832;SDS011;64089;51.478;5.692;2023-03-01T11:30:50;11.40;;;5.00;;
42832;SDS011;64089;51.478;5.692;2023-03-01T11:36:08;8.77;;;4.78;;
42832;SDS011;64089;51.478;5.692;2023-03-01T11:38:38;10.43;;;5.40;;
42832;SDS011;64089;51.478;5.692;2023-03-01T11:52:09;18.73;;;5.25;;
42832;SDS011;64089;51.478;5.692;2023-03-01T12:11:07;7.15;;;3.88;;
42832;SDS011;64089;51.478;5.692;2023-03-01T12:16:16;7.97;;;4.22;;
42832;SDS011;64089;51.478;5.692;2023-03-01T12:32:25;12.53;;;4.57;;
42832;SDS011;64089;51.478;5.692;2023-03-01T12:46:15;8.50;;;4.55;;
42832;SDS011;64089;51.478;5.692;2023-03-01T12:49:17;11.50;;;5.53;;
42832;SDS011;64089;51.478;5.692;2023-03-01T12:51:51;11.80;;;4.22;;
42832;SDS011;64089;51.478;5.692;2023-03-01T12:54:28;11.00;;;4.25;;
42832;SDS011;64089;51.478;5.692;2023-03-01T12:57:02;8.05;;;4.40;;
42832;SDS011;64089;51.478;5.692;2023-03-01T12:59:36;7.03;;;4.32;;
42832;SDS011;64089;51.478;5.692;2023-03-01T13:02:32;9.38;;;5.03;;
42832;SDS011;64089;51.478;5.692;2023-03-01T13:07:51;11.10;;;4.90;;
42832;SDS011;64089;51.478;5.692;2023-03-01T13:10:27;8.07;;;4.47;;
42832;SDS011;64089;51.478;5.692;2023-03-01T13:17:59;7.70;;;4.00;;
42832;SDS011;64089;51.478;5.692;2023-03-01T13:20:29;5.85;;;3.70;;
42832;SDS011;64089;51.478;5.692;2023-03-01T13:30:57;10.30;;;4.72;;
42832;SDS011;64089;51.478;5.692;2023-03-01T13:35:51;8.85;;;4.32;;
42832;SDS011;64089;51.478;5.692;2023-03-01T13:41:04;6.68;;;3.38;;
42832;SDS011;64089;51.478;5.692;2023-03-01T13:43:37;9.63;;;4.13;;
42832;SDS011;64089;51.478;5.692;2023-03-01T13:46:14;7.68;;;4.20;;
42832;SDS011;64089;51.478;5.692;2023-03-01T13:48:44;12.00;;;4.22;;
42832;SDS011;64089;51.478;5.692;2023-03-01T13:51:15;8.18;;;4.07;;
42832;SDS011;64089;51.478;5.692;2023-03-01T13:53:45;7.85;;;3.85;;
42832;SDS011;64089;51.478;5.692;2023-03-01T13:58:48;8.02;;;4.43;;
42832;SDS011;64089;51.478;5.692;2023-03-01T14:01:53;10.50;;;5.43;;
42832;SDS011;64089;51.478;5.692;2023-03-01T14:04:23;7.20;;;3.92;;
42832;SDS011;64089;51.478;5.692;2023-03-01T14:09:53;11.30;;;4.07;;
42832;SDS011;64089;51.478;5.692;2023-03-01T14:15:02;7.03;;;4.43;;
42832;SDS011;64089;51.478;5.692;2023-03-01T14:20:33;8.73;;;4.45;;
42832;SDS011;64089;51.478;5.692;2023-03-01T14:23:17;11.50;;;4.65;;
42832;SDS011;64089;51.478;5.692;2023-03-01T14:25:55;10.18;;;4.47;;
42832;SDS011;64089;51.478;5.692;2023-03-01T14:28:26;12.10;;;4.45;;
42832;SDS011;64089;51.478;5.692;2023-03-01T14:30:55;16.50;;;4.57;;
42832;SDS011;64089;51.478;5.692;2023-03-01T14:33:30;9.23;;;4.38;;
42832;SDS011;64089;51.478;5.692;2023-03-01T14:36:11;11.52;;;4.22;;
42832;SDS011;64089;51.478;5.692;2023-03-01T14:38:39;15.30;;;4.55;;
42832;SDS011;64089;51.478;5.692;2023-03-01T14:41:13;11.32;;;4.93;;
42832;SDS011;64089;51.478;5.692;2023-03-01T14:43:46;8.48;;;3.70;;
42832;SDS011;64089;51.478;5.692;2023-03-01T14:51:52;12.35;;;5.10;;
42832;SDS011;64089;51.478;5.692;2023-03-01T14:57:05;10.13;;;4.72;;
42832;SDS011;64089;51.478;5.692;2023-03-01T14:59:32;13.73;;;5.70;;
42832;SDS011;64089;51.478;5.692;2023-03-01T15:01:59;8.07;;;4.15;;
42832;SDS011;64089;51.478;5.692;2023-03-01T15:04:26;7.22;;;4.25;;
42832;SDS011;64089;51.478;5.692;2023-03-01T15:06:53;10.43;;;5.07;;
42832;SDS011;64089;51.478;5.692;2023-03-01T15:09:21;9.32;;;4.50;;
42832;SDS011;64089;51.478;5.692;2023-03-01T15:11:47;11.32;;;5.15;;
42832;SDS011;64089;51.478;5.692;2023-03-01T15:14:38;9.95;;;4.47;;
42832;SDS011;64089;51.478;5.692;2023-03-01T15:17:22;16.50;;;5.97;;
42832;SDS011;64089;51.478;5.692;2023-03-01T15:19:56;10.27;;;4.75;;
42832;SDS011;64089;51.478;5.692;2023-03-01T15:22:22;10.02;;;4.90;;
42832;SDS011;64089;51.478;5.692;2023-03-01T15:24:51;8.85;;;5.20;;
42832;SDS011;64089;51.478;5.692;2023-03-01T15:27:18;12.30;;;5.35;;
42832;SDS011;64089;51.478;5.692;2023-03-01T15:29:57;9.70;;;4.93;;
42832;SDS011;64089;51.478;5.692;2023-03-01T15:34:55;8.43;;;4.65;;
42832;SDS011;64089;51.478;5.692;2023-03-01T15:37:43;10.07;;;5.53;;
42832;SDS011;64089;51.478;5.692;2023-03-01T15:40:24;10.18;;;5.20;;
42832;SDS011;64089;51.478;5.692;2023-03-01T15:42:58;8.52;;;4.70;;
42832;SDS011;64089;51.478;5.692;2023-03-01T15:45:26;10.52;;;5.40;;
42832;SDS011;64089;51.478;5.692;2023-03-01T15:47:57;9.73;;;5.45;;
42832;SDS011;64089;51.478;5.692;2023-03-01T15:50:29;15.90;;;5.93;;
42832;SDS011;64089;51.478;5.692;2023-03-01T15:53:01;9.98;;;4.82;;
42832;SDS011;64089;51.478;5.692;2023-03-01T15:55:32;11.10;;;5.22;;
42832;SDS011;64089;51.478;5.692;2023-03-01T16:00:48;14.60;;;6.15;;
42832;SDS011;64089;51.478;5.692;2023-03-01T16:03:16;10.68;;;5.60;;
42832;SDS011;64089;51.478;5.692;2023-03-01T16:05:46;11.90;;;5.82;;
42832;SDS011;64089;51.478;5.692;2023-03-01T16:08:12;16.35;;;5.55;;
42832;SDS011;64089;51.478;5.692;2023-03-01T16:10:38;10.50;;;4.38;;
42832;SDS011;64089;51.478;5.692;2023-03-01T16:13:06;11.20;;;5.45;;
42832;SDS011;64089;51.478;5.692;2023-03-01T16:15:33;12.68;;;6.55;;
42832;SDS011;64089;51.478;5.692;2023-03-01T16:18:00;11.68;;;5.95;;
42832;SDS011;64089;51.478;5.692;2023-03-01T16:20:26;8.75;;;4.75;;
42832;SDS011;64089;51.478;5.692;2023-03-01T16:22:52;11.27;;;5.75;;
42832;SDS011;64089;51.478;5.692;2023-03-01T16:25:18;9.02;;;5.35;;
42832;SDS011;64089;51.478;5.692;2023-03-01T16:27:48;14.88;;;5.45;;
42832;SDS011;64089;51.478;5.692;2023-03-01T16:30:16;10.00;;;4.80;;
42832;SDS011;64089;51.478;5.692;2023-03-01T16:32:44;9.40;;;4.78;;
42832;SDS011;64089;51.478;5.692;2023-03-01T16:35:11;8.60;;;4.25;;
42832;SDS011;64089;51.478;5.692;2023-03-01T16:37:39;14.68;;;7.00;;
42832;SDS011;64089;51.478;5.692;2023-03-01T16:40:05;24.63;;;10.35;;
42832;SDS011;64089;51.478;5.692;2023-03-01T16:42:36;35.53;;;13.20;;
42832;SDS011;64089;51.478;5.692;2023-03-01T16:45:02;29.60;;;12.13;;
42832;SDS011;64089;51.478;5.692;2023-03-01T16:47:29;9.85;;;4.78;;
42832;SDS011;64089;51.478;5.692;2023-03-01T16:49:55;9.63;;;4.53;;
42832;SDS011;64089;51.478;5.692;2023-03-01T16:52:21;9.55;;;5.15;;
42832;SDS011;64089;51.478;5.692;2023-03-01T16:54:47;9.63;;;4.95;;
42832;SDS011;64089;51.478;5.692;2023-03-01T16:57:13;15.52;;;5.20;;
42832;SDS011;64089;51.478;5.692;2023-03-01T16:59:39;9.20;;;4.93;;
42832;SDS011;64089;51.478;5.692;2023-03-01T17:02:05;10.65;;;5.35;;
42832;SDS011;64089;51.478;5.692;2023-03-01T17:04:35;18.98;;;5.53;;
42832;SDS011;64089;51.478;5.692;2023-03-01T17:07:01;14.43;;;5.57;;
42832;SDS011;64089;51.478;5.692;2023-03-01T17:09:27;14.15;;;6.25;;
42832;SDS011;64089;51.478;5.692;2023-03-01T17:11:52;13.00;;;5.97;;
42832;SDS011;64089;51.478;5.692;2023-03-01T17:14:19;9.05;;;4.78;;